Time;durP1;ratioP1;P1;durP2;ratioP2;P2;SDS_P1;SDS_P2;PMS_P1;PMS_P2;Temp;Humidity;BMP_temperature;BMP_pressure;BME280_temperature;BME280_humidity;BME280_pressure;Samples;Min_cycle;Max_cycle;Signal;HPM_P1;HPM_P2
2022/09/01 00:02:27;;;;;;;4.10;0.77;;;16.40;89.90;;;;;;5006213;28;20049;-68
2022/09/01 00:04:57;;;;;;;1.77;0.60;;;16.40;91.20;;;;;;5040130;28;20085;-68
2022/09/01 00:07:28;;;;;;;0.85;0.63;;;16.40;92.60;;;;;;5006486;28;20083;-68
2022/09/01 00:09:54;;;;;;;1.33;0.65;;;16.40;93.00;;;;;;5018960;28;20053;-68
2022/09/01 00:12:21;;;;;;;3.90;0.63;;;16.40;90.70;;;;;;5041638;28;20576;-68
2022/09/01 00:14:47;;;;;;;0.80;0.50;;;16.30;89.60;;;;;;5024680;28;20049;-68
2022/09/01 00:17:14;;;;;;;0.85;0.85;;;16.40;91.00;;;;;;5026511;28;20120;-68
2022/09/01 00:19:39;;;;;;;2.97;0.50;;;16.30;90.90;;;;;;5022978;28;20045;-68
2022/09/01 00:22:06;;;;;;;1.95;0.25;;;16.40;82.70;;;;;;5024352;28;20056;-69
2022/09/01 00:24:34;;;;;;;1.42;0.50;;;16.40;85.70;;;;;;5029158;28;20045;-69
2022/09/01 00:26:59;;;;;;;1.27;0.50;;;16.40;85.00;;;;;;5028270;28;20065;-68
2022/09/01 00:29:25;;;;;;;0.60;0.60;;;16.40;86.80;;;;;;5045530;28;20491;-69
2022/09/01 00:31:51;;;;;;;0.40;0.40;;;16.40;85.30;;;;;;5040488;28;20049;-68
2022/09/01 00:34:20;;;;;;;2.53;0.70;;;16.40;87.30;;;;;;5038231;28;20080;-68
2022/09/01 00:36:46;;;;;;;1.73;0.43;;;16.40;86.10;;;;;;5027322;28;20041;-69
2022/09/01 00:39:12;;;;;;;1.40;0.43;;;16.40;88.50;;;;;;5012519;28;20068;-68
2022/09/01 00:41:40;;;;;;;1.55;0.60;;;16.40;89.60;;;;;;5029857;28;20492;-69
2022/09/01 00:44:10;;;;;;;2.83;0.50;;;16.30;90.80;;;;;;5039940;28;20045;-68
2022/09/01 00:46:48;;;;;;;1.40;0.50;;;16.30;88.90;;;;;;5045667;28;20049;-68
2022/09/01 00:49:21;;;;;;;0.60;0.40;;;16.40;89.30;;;;;;5025310;28;20056;-68
2022/09/01 00:51:54;;;;;;;0.50;0.50;;;16.30;88.50;;;;;;5044650;28;20056;-69
2022/09/01 00:54:26;;;;;;;1.27;0.47;;;16.30;88.60;;;;;;5029911;28;20060;-68
2022/09/01 00:56:54;;;;;;;0.90;0.50;;;16.30;90.40;;;;;;5043896;28;20049;-68
2022/09/01 00:59:22;;;;;;;1.65;0.43;;;16.40;89.90;;;;;;5045263;28;20057;-69
2022/09/01 01:01:49;;;;;;;1.00;0.60;;;16.30;88.00;;;;;;5013859;28;20050;-68
2022/09/01 01:04:15;;;;;;;0.70;0.40;;;16.40;88.50;;;;;;5028074;28;20091;-68
2022/09/01 01:06:49;;;;;;;3.58;0.90;;;16.40;90.00;;;;;;5011009;28;20046;-68
2022/09/01 01:09:20;;;;;;;0.93;0.40;;;16.30;90.70;;;;;;5044844;28;20056;-68
2022/09/01 01:11:47;;;;;;;1.00;0.60;;;16.30;90.30;;;;;;5003084;28;20100;-68
2022/09/01 01:14:16;;;;;;;0.98;0.55;;;16.30;91.30;;;;;;5023739;28;20209;-68
2022/09/01 01:16:47;;;;;;;1.70;0.40;;;16.30;90.90;;;;;;5045049;28;20046;-68
2022/09/01 01:23:01;;;;;;;0.60;0.60;;;16.40;88.60;;;;;;5026146;28;20042;-68
2022/09/01 01:25:31;;;;;;;0.90;0.45;;;16.40;89.70;;;;;;5007303;28;20056;-68
2022/09/01 01:28:17;;;;;;;1.33;0.50;;;16.40;90.30;;;;;;5027540;28;20541;-68
2022/09/01 01:30:52;;;;;;;0.50;0.50;;;16.40;91.20;;;;;;5043950;28;20060;-68
2022/09/01 01:33:33;;;;;;;2.40;0.40;;;16.40;89.20;;;;;;5025348;28;20052;-68
2022/09/01 01:36:00;;;;;;;1.25;0.50;;;16.40;90.00;;;;;;5026705;28;20042;-68
2022/09/01 01:38:26;;;;;;;2.05;0.60;;;16.40;90.60;;;;;;5014160;28;20046;-68
2022/09/01 01:40:53;;;;;;;0.50;0.43;;;16.40;89.60;;;;;;5042792;28;20048;-68
2022/09/01 01:43:20;;;;;;;0.63;0.63;;;16.40;90.10;;;;;;5043438;28;20507;-68
2022/09/01 01:45:51;;;;;;;1.02;0.45;;;16.40;92.10;;;;;;5043680;28;20042;-68
2022/09/01 01:48:23;;;;;;;0.98;0.60;;;16.40;90.70;;;;;;5033107;28;20056;-68
2022/09/01 01:50:53;;;;;;;3.25;0.43;;;16.30;88.60;;;;;;5044246;28;20064;-69
2022/09/01 01:53:20;;;;;;;0.60;0.40;;;16.40;88.50;;;;;;5027658;28;20487;-68
2022/09/01 01:55:48;;;;;;;0.82;0.30;;;16.30;88.00;;;;;;5027445;28;20041;-69
2022/09/01 01:58:18;;;;;;;0.98;0.47;;;16.30;86.10;;;;;;5041277;28;20045;-69
2022/09/01 02:00:46;;;;;;;0.73;0.50;;;16.30;84.40;;;;;;5044108;28;20081;-69
2022/09/01 02:03:17;;;;;;;1.65;0.50;;;16.30;86.90;;;;;;5025838;28;20484;-68
2022/09/01 02:05:45;;;;;;;1.15;0.60;;;16.30;85.40;;;;;;5028429;28;20479;-69
2022/09/01 02:08:14;;;;;;;2.85;0.60;;;16.20;83.20;;;;;;5042755;28;20037;-68
2022/09/01 02:10:43;;;;;;;2.58;0.50;;;16.20;84.60;;;;;;5010051;28;20503;-68
2022/09/01 02:13:15;;;;;;;0.88;0.57;;;16.20;88.90;;;;;;5010407;28;20045;-68
2022/09/01 02:15:46;;;;;;;0.65;0.50;;;16.20;91.10;;;;;;5027218;28;20175;-68
2022/09/01 02:18:19;;;;;;;1.30;0.40;;;16.20;90.60;;;;;;5025301;28;20584;-68
2022/09/01 02:20:49;;;;;;;2.97;0.50;;;16.10;90.50;;;;;;5026209;28;20522;-68
2022/09/01 02:23:16;;;;;;;2.92;0.68;;;16.10;90.80;;;;;;5037319;28;20141;-68
2022/09/01 02:25:44;;;;;;;2.47;0.70;;;16.00;92.20;;;;;;4991213;28;20034;-69
2022/09/01 02:28:17;;;;;;;0.75;0.57;;;16.00;92.80;;;;;;5025070;28;20042;-68
2022/09/01 02:30:44;;;;;;;0.30;0.30;;;16.00;92.20;;;;;;5043786;28;20052;-68
2022/09/01 02:33:17;;;;;;;2.13;0.60;;;16.00;92.20;;;;;;5025883;28;20121;-69
2022/09/01 02:36:03;;;;;;;0.50;0.50;;;16.00;93.30;;;;;;5026752;28;20057;-68
2022/09/01 02:38:31;;;;;;;2.40;0.43;;;15.90;94.40;;;;;;4997264;28;20053;-68
2022/09/01 02:40:58;;;;;;;2.65;0.60;;;15.90;93.70;;;;;;5041743;28;20053;-68
2022/09/01 02:43:26;;;;;;;0.85;0.50;;;15.80;94.40;;;;;;5025871;28;20034;-68
2022/09/01 02:45:56;;;;;;;1.08;0.70;;;15.80;95.80;;;;;;5036913;28;20107;-69
2022/09/01 02:48:31;;;;;;;1.17;0.50;;;15.80;96.70;;;;;;5024315;28;20477;-68
2022/09/01 02:51:01;;;;;;;7.65;0.95;;;15.80;93.60;;;;;;5025297;28;20128;-68
2022/09/01 02:53:30;;;;;;;1.48;0.65;;;15.80;94.30;;;;;;5025832;28;20041;-68
2022/09/01 02:55:58;;;;;;;0.88;0.28;;;15.80;95.30;;;;;;5025644;28;20052;-68
2022/09/01 02:58:31;;;;;;;1.08;0.60;;;15.80;95.40;;;;;;5024338;28;20053;-68
2022/09/01 03:00:58;;;;;;;1.50;0.45;;;15.80;97.00;;;;;;5042359;28;20061;-68
2022/09/01 03:03:24;;;;;;;0.50;0.40;;;15.90;97.50;;;;;;5023093;28;20073;-68
2022/09/01 03:05:55;;;;;;;1.10;0.38;;;15.90;96.30;;;;;;5042906;28;20632;-68
2022/09/01 03:08:23;;;;;;;1.75;0.50;;;16.00;97.20;;;;;;5041434;28;20049;-68
2022/09/01 03:10:50;;;;;;;2.92;0.68;;;16.00;98.10;;;;;;5041700;28;20060;-68
2022/09/01 03:13:22;;;;;;;3.70;0.57;;;16.00;98.40;;;;;;5042257;28;20095;-69
2022/09/01 03:15:49;;;;;;;0.90;0.40;;;16.10;98.60;;;;;;5041616;28;20049;-68
2022/09/01 03:18:17;;;;;;;2.95;0.68;;;16.00;99.90;;;;;;5042366;28;20080;-68
2022/09/01 03:20:49;;;;;;;1.98;0.43;;;16.00;99.80;;;;;;5024519;28;20095;-68
2022/09/01 03:23:17;;;;;;;4.93;0.50;;;16.00;99.90;;;;;;5026603;28;20488;-69
2022/09/01 03:25:44;;;;;;;0.65;0.65;;;16.00;99.70;;;;;;5041891;28;20701;-67
2022/09/01 03:28:14;;;;;;;1.55;0.55;;;16.00;99.90;;;;;;5041563;28;20076;-68
2022/09/01 03:30:47;;;;;;;1.10;0.57;;;16.00;99.90;;;;;;5042523;28;20404;-68
2022/09/01 03:33:15;;;;;;;0.40;0.40;;;15.90;99.90;;;;;;5011864;28;20037;-68
2022/09/01 03:35:42;;;;;;;1.00;0.60;;;15.90;99.90;;;;;;5042610;28;20116;-68
2022/09/01 03:38:11;;;;;;;0.95;0.60;;;15.90;99.90;;;;;;5040648;28;20156;-68
2022/09/01 03:40:38;;;;;;;6.13;0.70;;;15.80;99.90;;;;;;5042311;28;20053;-68
2022/09/01 03:43:11;;;;;;;1.60;0.50;;;15.80;99.90;;;;;;5026146;28;20033;-68
2022/09/01 03:45:37;;;;;;;0.98;0.50;;;15.70;99.90;;;;;;5031483;28;20443;-68
2022/09/01 03:48:07;;;;;;;1.05;0.50;;;15.70;99.90;;;;;;5025164;28;20037;-68
2022/09/01 03:50:39;;;;;;;0.98;0.65;;;15.70;99.90;;;;;;5025289;28;20464;-68
2022/09/01 03:53:09;;;;;;;4.43;0.50;;;15.60;99.90;;;;;;5026286;28;20632;-68
2022/09/01 03:55:37;;;;;;;2.30;0.63;;;15.60;99.90;;;;;;5024427;28;20041;-68
2022/09/01 03:58:05;;;;;;;3.20;0.80;;;15.60;99.90;;;;;;5040487;28;20753;-68
2022/09/01 04:00:34;;;;;;;3.00;0.80;;;15.60;99.90;;;;;;5041398;28;20423;-68
2022/09/01 04:03:03;;;;;;;0.80;0.50;;;15.60;99.90;;;;;;5034252;28;20041;-68
2022/09/01 04:05:32;;;;;;;2.22;1.15;;;15.60;99.90;;;;;;5041875;28;20048;-68
2022/09/01 04:08:02;;;;;;;3.05;0.57;;;15.60;99.90;;;;;;5040830;28;20033;-68
2022/09/01 04:10:34;;;;;;;2.15;0.60;;;15.60;99.90;;;;;;5025917;28;20042;-69
2022/09/01 04:13:01;;;;;;;0.60;0.57;;;15.60;99.90;;;;;;5027667;28;20052;-68
2022/09/01 04:15:28;;;;;;;1.38;0.55;;;15.60;99.90;;;;;;5024882;28;20442;-68
2022/09/01 04:18:11;;;;;;;6.60;0.60;;;15.60;99.90;;;;;;5042036;28;20484;-68
2022/09/01 04:20:58;;;;;;;1.42;0.50;;;15.60;99.90;;;;;;5025221;28;20217;-68
2022/09/01 04:23:26;;;;;;;1.35;0.50;;;15.50;99.90;;;;;;5018889;28;20440;-68
2022/09/01 04:25:55;;;;;;;1.48;0.65;;;15.60;99.90;;;;;;5024030;28;20387;-68
2022/09/01 04:28:29;;;;;;;1.08;0.75;;;15.60;99.90;;;;;;5041457;28;20135;-67
2022/09/01 04:30:57;;;;;;;2.83;0.65;;;15.50;99.90;;;;;;5041138;28;20128;-68
2022/09/01 04:33:35;;;;;;;1.73;0.40;;;15.50;99.90;;;;;;5023533;28;20539;-68
2022/09/01 04:36:02;;;;;;;0.77;0.57;;;15.50;99.90;;;;;;5040940;28;20438;-68
2022/09/01 04:38:29;;;;;;;0.52;0.52;;;15.50;99.90;;;;;;5024001;28;20043;-68
2022/09/01 04:40:56;;;;;;;0.50;0.50;;;15.50;99.90;;;;;;5041495;28;20049;-68
2022/09/01 04:43:24;;;;;;;0.52;0.52;;;15.50;99.90;;;;;;5025263;28;20038;-68
2022/09/01 04:45:51;;;;;;;1.38;0.60;;;15.50;99.90;;;;;;5025863;28;20049;-68
2022/09/01 04:48:20;;;;;;;1.17;0.73;;;15.50;99.90;;;;;;5030293;28;20092;-68
2022/09/01 04:50:50;;;;;;;4.10;0.90;;;15.50;99.90;;;;;;5007371;28;20042;-68
2022/09/01 04:53:17;;;;;;;1.35;0.70;;;15.50;99.90;;;;;;5024155;28;20134;-68
2022/09/01 04:55:43;;;;;;;0.93;0.73;;;15.50;99.90;;;;;;5007597;28;20365;-68
2022/09/01 04:58:16;;;;;;;3.38;0.60;;;15.50;99.90;;;;;;5040919;28;20128;-68
2022/09/01 05:00:43;;;;;;;2.42;0.50;;;15.50;99.90;;;;;;5024158;28;20073;-68
2022/09/01 05:03:10;;;;;;;0.90;0.60;;;15.40;99.90;;;;;;5025070;28;20056;-68
2022/09/01 05:05:43;;;;;;;0.63;0.63;;;15.50;99.90;;;;;;5041201;28;20045;-68
2022/09/01 05:08:12;;;;;;;0.60;0.60;;;15.50;99.90;;;;;;5028333;28;20034;-68
2022/09/01 05:10:42;;;;;;;0.80;0.43;;;15.50;99.90;;;;;;5022572;28;20392;-68
2022/09/01 05:13:11;;;;;;;1.08;0.60;;;15.50;99.90;;;;;;5043247;28;20129;-69
2022/09/01 05:15:38;;;;;;;0.70;0.70;;;15.50;99.90;;;;;;5044993;28;20072;-68
2022/09/01 05:18:08;;;;;;;3.45;0.88;;;15.50;99.90;;;;;;5044045;28;20046;-68
2022/09/01 05:20:42;;;;;;;0.65;0.50;;;15.50;99.90;;;;;;5018044;28;20049;-68
2022/09/01 05:23:12;;;;;;;1.25;0.80;;;15.50;99.90;;;;;;5014229;28;20045;-69
2022/09/01 05:25:43;;;;;;;2.38;0.55;;;15.50;99.90;;;;;;5024926;28;20102;-68
2022/09/01 05:28:14;;;;;;;3.40;0.60;;;15.50;99.90;;;;;;5020793;28;20406;-68
2022/09/01 05:30:41;;;;;;;1.02;0.90;;;15.50;99.90;;;;;;5043777;28;20446;-68
2022/09/01 05:33:11;;;;;;;3.03;0.77;;;15.50;99.90;;;;;;5043090;28;20033;-68
2022/09/01 05:35:43;;;;;;;0.80;0.70;;;15.50;99.90;;;;;;5044968;28;20450;-68
2022/09/01 05:38:12;;;;;;;2.13;0.90;;;15.50;99.90;;;;;;5025380;28;20129;-68
2022/09/01 05:40:44;;;;;;;0.77;0.63;;;15.50;99.90;;;;;;5028217;28;20057;-68
2022/09/01 05:43:12;;;;;;;0.88;0.73;;;15.50;99.90;;;;;;5040314;28;20697;-68
2022/09/01 05:45:42;;;;;;;2.55;0.80;;;15.50;99.90;;;;;;5026194;28;20052;-68
2022/09/01 05:48:20;;;;;;;2.25;0.47;;;15.50;99.90;;;;;;5026995;28;20160;-67
2022/09/01 05:50:48;;;;;;;1.58;0.70;;;15.50;99.90;;;;;;5043530;28;20085;-68
2022/09/01 05:53:16;;;;;;;0.68;0.68;;;15.50;99.90;;;;;;5027185;28;20071;-68
2022/09/01 05:55:47;;;;;;;0.88;0.57;;;15.50;99.90;;;;;;5024825;28;20541;-68
2022/09/01 05:58:15;;;;;;;0.80;0.68;;;15.50;99.90;;;;;;5022351;28;20053;-68
2022/09/01 06:00:48;;;;;;;0.75;0.70;;;15.50;99.90;;;;;;5016960;28;20111;-68
2022/09/01 06:03:16;;;;;;;0.60;0.60;;;15.50;99.90;;;;;;5022425;28;20045;-68
2022/09/01 06:05:44;;;;;;;0.82;0.50;;;15.50;99.90;;;;;;5043678;28;20354;-67
2022/09/01 06:08:12;;;;;;;0.52;0.52;;;15.50;99.90;;;;;;5043271;28;20115;-68
2022/09/01 06:10:40;;;;;;;1.83;0.95;;;15.50;99.90;;;;;;5040068;28;20512;-68
2022/09/01 06:13:08;;;;;;;1.73;0.75;;;15.50;99.90;;;;;;5042786;28;20539;-67
2022/09/01 06:15:37;;;;;;;1.38;0.60;;;15.50;99.90;;;;;;5026821;28;20080;-68
2022/09/01 06:18:10;;;;;;;3.70;0.70;;;15.60;99.90;;;;;;5029329;28;20042;-67
2022/09/01 06:20:39;;;;;;;1.98;0.57;;;15.60;99.90;;;;;;5019523;28;20030;-68
2022/09/01 06:23:06;;;;;;;1.83;0.82;;;15.60;99.90;;;;;;5028315;28;20384;-68
2022/09/01 06:25:35;;;;;;;4.15;0.90;;;15.70;99.90;;;;;;5026033;28;20429;-68
2022/09/01 06:28:03;;;;;;;1.53;0.50;;;15.80;99.90;;;;;;5014083;28;20449;-68
2022/09/01 06:30:29;;;;;;;1.00;0.57;;;15.90;99.90;;;;;;5035859;28;20361;-68
2022/09/01 06:32:55;;;;;;;0.93;0.70;;;16.00;99.90;;;;;;5026206;28;20045;-68
2022/09/01 06:35:28;;;;;;;1.08;1.00;;;16.10;99.90;;;;;;5041728;28;20107;-68
2022/09/01 06:37:55;;;;;;;1.35;0.82;;;16.10;99.90;;;;;;5010298;28;20045;-68
2022/09/01 06:40:24;;;;;;;4.72;0.73;;;16.20;99.90;;;;;;5024908;28;20045;-68
2022/09/01 06:42:51;;;;;;;1.70;0.80;;;16.20;99.90;;;;;;5041513;28;20049;-68
2022/09/01 06:45:22;;;;;;;3.15;1.00;;;16.30;99.90;;;;;;5023214;28;20045;-68
2022/09/01 06:47:50;;;;;;;2.17;0.98;;;16.30;99.90;;;;;;5024642;28;20211;-68
2022/09/01 06:50:20;;;;;;;1.27;1.15;;;16.40;99.90;;;;;;5042374;28;20041;-68
2022/09/01 06:53:07;;;;;;;6.70;1.20;;;16.40;99.90;;;;;;5022423;28;20080;-68
2022/09/01 06:55:36;;;;;;;1.90;1.00;;;16.50;99.90;;;;;;5011967;28;20060;-68
2022/09/01 06:58:06;;;;;;;6.45;1.08;;;16.50;99.90;;;;;;5026525;28;20049;-69
2022/09/01 07:00:41;;;;;;;5.78;0.90;;;16.60;99.90;;;;;;5024140;28;20168;-68
2022/09/01 07:03:12;;;;;;;3.03;0.90;;;16.70;99.90;;;;;;5001069;28;20128;-68
2022/09/01 07:05:44;;;;;;;0.98;0.80;;;16.80;99.90;;;;;;5017554;28;20049;-68
2022/09/01 07:08:18;;;;;;;2.90;0.88;;;16.80;99.90;;;;;;5024131;28;20048;-68
2022/09/01 07:10:48;;;;;;;0.80;0.60;;;16.80;99.90;;;;;;5023899;28;20128;-68
2022/09/01 07:13:21;;;;;;;0.85;0.70;;;16.80;99.90;;;;;;5034867;28;20046;-68
2022/09/01 07:15:49;;;;;;;1.85;1.05;;;16.90;99.90;;;;;;5019816;28;20072;-68
2022/09/01 07:18:17;;;;;;;3.08;0.90;;;16.90;99.90;;;;;;5037146;28;20053;-68
2022/09/01 07:20:46;;;;;;;3.70;0.98;;;16.90;99.90;;;;;;5026936;28;20041;-68
2022/09/01 07:23:12;;;;;;;3.75;1.58;;;17.00;99.90;;;;;;5022940;28;20041;-68
2022/09/01 07:25:40;;;;;;;1.25;1.02;;;17.00;99.90;;;;;;5041353;28;20053;-67
2022/09/01 07:28:07;;;;;;;2.10;1.20;;;17.10;99.90;;;;;;5026467;28;20041;-68
2022/09/01 07:30:39;;;;;;;2.15;1.27;;;17.10;99.90;;;;;;5026075;28;20053;-67
2022/09/01 07:33:10;;;;;;;2.13;1.20;;;17.10;99.90;;;;;;5025816;28;20049;-68
2022/09/01 07:35:41;;;;;;;5.68;1.30;;;17.10;99.90;;;;;;5021134;28;20041;-68
2022/09/01 07:38:08;;;;;;;1.85;1.38;;;17.20;99.90;;;;;;5025859;28;20383;-68
2022/09/01 07:40:39;;;;;;;8.70;1.60;;;17.30;99.90;;;;;;5024431;28;20056;-67
2022/09/01 07:43:08;;;;;;;4.45;1.10;;;17.40;99.90;;;;;;5026197;28;20428;-68
2022/09/01 07:45:36;;;;;;;2.58;1.30;;;17.80;99.90;;;;;;5024252;28;20044;-67
2022/09/01 07:48:05;;;;;;;5.13;1.13;;;18.10;98.70;;;;;;5025661;28;20491;-68
2022/09/01 07:50:36;;;;;;;4.73;0.67;;;18.40;96.30;;;;;;5009022;28;20560;-67
2022/09/01 07:53:03;;;;;;;1.92;0.75;;;18.80;84.80;;;;;;5006613;28;20037;-67
2022/09/01 07:55:30;;;;;;;1.20;0.90;;;19.10;84.70;;;;;;5023260;28;20050;-68
2022/09/01 07:57:57;;;;;;;0.80;0.80;;;19.00;80.00;;;;;;5040886;28;20088;-67
2022/09/01 08:00:23;;;;;;;2.55;0.75;;;19.20;83.10;;;;;;5040177;28;20053;-67
2022/09/01 08:02:51;;;;;;;5.75;0.93;;;19.20;79.00;;;;;;5035624;28;20053;-67
2022/09/01 08:05:21;;;;;;;3.05;1.00;;;19.50;77.60;;;;;;4991502;28;20535;-67
2022/09/01 08:07:48;;;;;;;1.52;0.63;;;19.70;76.00;;;;;;5009302;28;20049;-66
2022/09/01 08:10:15;;;;;;;4.03;1.10;;;19.90;72.70;;;;;;5023953;28;20255;-66
2022/09/01 08:12:41;;;;;;;0.68;0.52;;;19.90;70.60;;;;;;5026056;28;20467;-66
2022/09/01 08:15:11;;;;;;;2.20;0.73;;;19.90;70.60;;;;;;5024032;28;20047;-67
2022/09/01 08:17:36;;;;;;;;;;;20.10;72.50;;;;;;5025257;28;20474;-66
2022/09/01 08:20:05;;;;;;;1.15;0.82;;;20.10;69.60;;;;;;5024562;28;19928;-66
2022/09/01 08:22:32;;;;;;;2.33;0.90;;;20.20;71.30;;;;;;5039653;28;20049;-67
2022/09/01 08:24:58;;;;;;;3.40;0.77;;;20.20;67.00;;;;;;5025703;28;20522;-67
2022/09/01 08:27:24;;;;;;;2.28;0.95;;;20.20;71.30;;;;;;5022712;28;20029;-67
2022/09/01 08:29:50;;;;;;;3.20;0.73;;;20.30;70.50;;;;;;5024382;28;20489;-67
2022/09/01 08:32:16;;;;;;;2.08;0.80;;;20.40;66.80;;;;;;5039193;28;20452;-67
2022/09/01 08:34:42;;;;;;;1.67;1.13;;;20.50;62.40;;;;;;5025325;28;20080;-67
2022/09/01 08:37:08;;;;;;;1.58;0.70;;;20.50;71.20;;;;;;5039313;28;20118;-66
2022/09/01 08:39:34;;;;;;;1.77;0.80;;;20.70;68.50;;;;;;5006730;28;20049;-66
2022/09/01 08:42:26;;;;;;;1.52;0.70;;;20.80;70.50;;;;;;5010413;28;20044;-66
2022/09/01 08:45:09;;;;;;;0.90;0.90;;;20.90;61.90;;;;;;5026379;28;20092;-66
2022/09/01 08:47:35;;;;;;;3.95;0.90;;;21.00;61.90;;;;;;5038805;28;20050;-67
2022/09/01 08:50:02;;;;;;;1.23;0.80;;;21.20;63.30;;;;;;5025739;28;20083;-67
2022/09/01 08:52:59;;;;;;;1.00;0.70;;;21.30;60.70;;;;;;5027154;28;20049;-67
2022/09/01 08:55:30;;;;;;;1.58;0.90;;;21.40;53.70;;;;;;5029315;28;20068;-67
2022/09/01 08:57:59;;;;;;;1.83;0.93;;;21.30;52.30;;;;;;5028180;28;20049;-66
2022/09/01 09:00:28;;;;;;;10.30;1.27;;;21.40;63.90;;;;;;5036524;28;20048;-67
2022/09/01 09:03:05;;;;;;;0.95;0.82;;;21.20;57.50;;;;;;5023349;28;20049;-67
2022/09/01 09:05:59;;;;;;;2.15;1.30;;;21.10;56.90;;;;;;5044209;28;20037;-67
2022/09/01 09:08:33;;;;;;;1.40;0.77;;;21.00;54.60;;;;;;5046546;28;20052;-67
2022/09/01 09:11:00;;;;;;;11.35;1.33;;;21.10;58.40;;;;;;5045834;28;20525;-68
2022/09/01 09:13:38;;;;;;;3.05;1.00;;;21.20;59.70;;;;;;5049466;28;20494;-66
2022/09/01 09:16:13;;;;;;;5.18;1.00;;;21.20;53.50;;;;;;5049321;28;20074;-66
2022/09/01 09:19:20;;;;;;;1.38;0.77;;;21.10;55.10;;;;;;5047058;28;20059;-67
2022/09/01 09:21:51;;;;;;;7.35;1.00;;;20.90;52.30;;;;;;5009751;28;20156;-67
2022/09/01 09:24:20;;;;;;;2.00;0.80;;;20.80;54.10;;;;;;5048120;28;20052;-67
2022/09/01 09:26:50;;;;;;;3.15;1.13;;;20.70;54.20;;;;;;5048330;28;20033;-67
2022/09/01 09:29:17;;;;;;;2.20;0.85;;;20.80;61.50;;;;;;5029852;28;20045;-68
2022/09/01 09:31:47;;;;;;;5.22;1.00;;;20.90;64.90;;;;;;5047970;28;20067;-67
2022/09/01 09:34:38;;;;;;;2.65;0.70;;;21.20;61.90;;;;;;5047925;28;20622;-67
2022/09/01 09:37:29;;;;;;;4.45;0.63;;;21.40;60.00;;;;;;5020550;28;20088;-67
2022/09/01 09:40:01;;;;;;;1.58;0.40;;;21.50;46.80;;;;;;5044582;28;20471;-67
2022/09/01 09:42:26;;;;;;;7.78;0.80;;;21.60;53.50;;;;;;5028138;28;20124;-68
2022/09/01 09:44:54;;;;;;;1.23;0.60;;;21.50;42.30;;;;;;5044653;28;20137;-67
2022/09/01 09:47:45;;;;;;;5.65;0.63;;;21.60;42.50;;;;;;5030727;28;20052;-67
2022/09/01 09:50:23;;;;;;;3.35;0.55;;;21.60;42.10;;;;;;5046603;28;20388;-67
2022/09/01 09:52:51;;;;;;;2.45;0.70;;;21.70;49.30;;;;;;5026672;28;20398;-67
2022/09/01 09:55:23;;;;;;;1.27;0.60;;;21.70;47.50;;;;;;5030058;28;20473;-68
2022/09/01 09:57:52;;;;;;;3.67;0.70;;;21.80;41.00;;;;;;5028996;28;20091;-68
2022/09/01 10:00:31;;;;;;;6.43;1.30;;;21.70;44.90;;;;;;5030199;28;20495;-67
2022/09/01 10:03:01;;;;;;;3.17;0.90;;;21.80;41.70;;;;;;5027963;28;20351;-67
2022/09/01 10:05:43;;;;;;;4.15;0.60;;;21.80;46.90;;;;;;5014141;28;20032;-68
2022/09/01 10:08:36;;;;;;;3.10;0.57;;;21.90;46.00;;;;;;5030136;28;20049;-67
2022/09/01 10:11:04;;;;;;;4.05;0.60;;;22.00;47.60;;;;;;5025748;28;20131;-67
2022/09/01 10:13:34;;;;;;;2.25;0.60;;;22.00;46.10;;;;;;5040047;28;20045;-68
2022/09/01 10:16:23;;;;;;;5.10;0.65;;;21.90;42.80;;;;;;5012876;28;20098;-67
2022/09/01 10:18:51;;;;;;;1.45;0.80;;;21.90;39.50;;;;;;5045284;28;20040;-67
2022/09/01 10:21:34;;;;;;;2.85;1.17;;;22.00;42.50;;;;;;5029968;28;21030;-67
2022/09/01 10:24:26;;;;;;;0.70;0.60;;;21.80;37.50;;;;;;5027706;28;20052;-67
2022/09/01 10:26:55;;;;;;;3.03;0.60;;;21.80;42.00;;;;;;5033623;28;20057;-67
2022/09/01 10:29:33;;;;;;;3.63;0.52;;;21.90;44.80;;;;;;5047209;28;20391;-67
2022/09/01 10:32:00;;;;;;;1.85;0.85;;;22.00;39.80;;;;;;5026839;28;20380;-68
2022/09/01 10:34:31;;;;;;;1.85;0.82;;;22.00;33.90;;;;;;5012158;28;20048;-67
2022/09/01 10:36:58;;;;;;;2.08;0.70;;;22.00;36.90;;;;;;5045675;28;20397;-67
2022/09/01 10:39:24;;;;;;;2.60;0.65;;;22.10;42.30;;;;;;5046893;28;20045;-67
2022/09/01 10:41:56;;;;;;;2.97;0.45;;;22.20;34.70;;;;;;5024588;28;20047;-67
2022/09/01 10:44:22;;;;;;;2.58;0.75;;;22.30;37.60;;;;;;5027941;28;20119;-67
2022/09/01 10:46:49;;;;;;;1.48;0.43;;;22.40;28.90;;;;;;5045065;28;20132;-68
2022/09/01 10:49:21;;;;;;;1.23;0.73;;;22.50;29.00;;;;;;5024309;28;20124;-68
2022/09/01 10:51:47;;;;;;;2.08;0.60;;;22.60;30.30;;;;;;5024402;28;20049;-67
2022/09/01 10:54:38;;;;;;;1.75;0.40;;;22.50;27.80;;;;;;5045921;28;20459;-67
2022/09/01 10:57:34;;;;;;;4.40;0.40;;;22.50;32.20;;;;;;5046656;28;20076;-67
2022/09/01 11:00:18;;;;;;;4.68;0.70;;;22.60;27.10;;;;;;5044703;28;20056;-67
2022/09/01 11:03:12;;;;;;;1.10;0.60;;;22.60;23.80;;;;;;5044948;28;20083;-67
2022/09/01 11:06:06;;;;;;;0.40;0.40;;;22.70;24.60;;;;;;5046639;28;20045;-67
2022/09/01 11:08:32;;;;;;;0.80;0.43;;;22.60;20.90;;;;;;5019480;28;20099;-68
2022/09/01 11:11:41;;;;;;;0.80;0.60;;;22.60;20.90;;;;;;5044752;28;20128;-68
2022/09/01 11:14:21;;;;;;;0.50;0.50;;;22.70;21.60;;;;;;5023982;28;20057;-67
2022/09/01 11:17:12;;;;;;;0.45;0.30;;;22.70;18.00;;;;;;5044836;28;20064;-68
2022/09/01 11:20:09;;;;;;;0.55;0.55;;;22.80;18.70;;;;;;5046343;28;20047;-67
2022/09/01 11:22:45;;;;;;;0.90;0.50;;;22.90;18.00;;;;;;5010944;28;20376;-68
2022/09/01 11:25:32;;;;;;;2.08;0.50;;;22.80;12.50;;;;;;5034385;28;20044;-67
2022/09/01 11:28:13;;;;;;;1.10;0.38;;;22.90;18.30;;;;;;5045310;28;20045;-67
2022/09/01 11:30:51;;;;;;;1.05;0.50;;;23.00;12.60;;;;;;5047031;28;20040;-67
2022/09/01 11:33:26;;;;;;;1.85;0.40;;;22.90;10.80;;;;;;5044063;28;20068;-67
2022/09/01 11:36:30;;;;;;;0.85;0.40;;;22.80;15.50;;;;;;5037643;28;20139;-67
2022/09/01 11:39:04;;;;;;;0.45;0.40;;;22.70;11.00;;;;;;5018468;28;20159;-67
2022/09/01 11:41:40;;;;;;;1.95;0.40;;;22.70;10.60;;;;;;5033515;28;20044;-67
2022/09/01 11:44:20;;;;;;;0.45;0.35;;;22.70;12.20;;;;;;5015689;28;20500;-68
2022/09/01 11:46:46;;;;;;;1.52;0.47;;;22.70;13.70;;;;;;5032650;28;20045;-68
2022/09/01 11:49:24;;;;;;;1.60;0.40;;;22.80;10.20;;;;;;5037235;28;20041;-67
2022/09/01 11:51:50;;;;;;;2.03;0.35;;;22.80;8.90;;;;;;5045638;28;20425;-68
2022/09/01 11:54:16;;;;;;;1.60;0.60;;;22.80;7.90;;;;;;5027518;28;20045;-68
2022/09/01 11:56:42;;;;;;;0.50;0.50;;;22.70;8.30;;;;;;5036485;28;20047;-68
2022/09/01 11:59:08;;;;;;;3.13;0.40;;;22.70;8.10;;;;;;5026469;28;20398;-67
2022/09/01 12:01:39;;;;;;;1.20;0.55;;;22.70;11.30;;;;;;5026634;28;20114;-68
2022/09/01 12:04:26;;;;;;;3.95;0.50;;;22.90;10.30;;;;;;5037819;28;20084;-68
2022/09/01 12:06:56;;;;;;;0.57;0.52;;;22.80;8.90;;;;;;5042993;28;20053;-68
2022/09/01 12:09:42;;;;;;;2.67;0.43;;;22.90;8.10;;;;;;5033283;28;20160;-68
2022/09/01 12:12:29;;;;;;;1.80;0.50;;;23.00;7.30;;;;;;5023528;28;20123;-68
2022/09/01 12:14:57;;;;;;;1.67;0.52;;;23.00;7.30;;;;;;5016016;28;20368;-68
2022/09/01 12:17:26;;;;;;;0.70;0.40;;;23.10;11.90;;;;;;5042974;28;20049;-67
2022/09/01 12:19:53;;;;;;;0.35;0.30;;;23.10;10.80;;;;;;5041254;28;20045;-68
2022/09/01 12:22:21;;;;;;;0.60;0.50;;;23.30;9.00;;;;;;5035398;28;20057;-67
2022/09/01 12:24:52;;;;;;;1.50;0.60;;;23.20;9.40;;;;;;5051563;28;20037;-67
2022/09/01 12:27:22;;;;;;;1.50;0.50;;;23.10;4.90;;;;;;5051357;28;20110;-68
2022/09/01 12:29:49;;;;;;;14.43;0.93;;;23.00;6.20;;;;;;5033548;28;20387;-67
2022/09/01 12:32:16;;;;;;;10.95;1.80;;;23.00;5.80;;;;;;5051993;28;20072;-67
2022/09/01 12:35:03;;;;;;;2.83;0.60;;;23.00;8.40;;;;;;5034854;28;20399;-67
2022/09/01 12:37:29;;;;;;;3.30;0.87;;;23.00;7.60;;;;;;5039015;28;20060;-68
2022/09/01 12:39:58;;;;;;;2.70;0.50;;;23.00;10.70;;;;;;5049443;28;20049;-68
2022/09/01 12:42:30;;;;;;;1.95;0.60;;;22.90;6.60;;;;;;5049818;28;20048;-68
2022/09/01 12:45:00;;;;;;;1.02;0.60;;;22.90;10.20;;;;;;5034903;28;20063;-68
2022/09/01 12:47:35;;;;;;;3.72;0.40;;;22.80;6.20;;;;;;5017691;28;20056;-67
2022/09/01 12:50:05;;;;;;;2.72;0.50;;;22.80;7.30;;;;;;5049302;28;20044;-68
2022/09/01 12:52:34;;;;;;;2.05;0.50;;;22.80;6.20;;;;;;5052857;28;20037;-67
2022/09/01 12:55:05;;;;;;;2.45;0.60;;;22.70;5.10;;;;;;5050638;28;20037;-67
2022/09/01 12:57:48;;;;;;;2.30;0.68;;;22.80;8.00;;;;;;5047762;28;20340;-68
2022/09/01 13:00:22;;;;;;;2.63;0.73;;;22.80;7.10;;;;;;5047578;28;20045;-67
2022/09/01 13:03:13;;;;;;;5.22;0.60;;;22.90;7.40;;;;;;5030053;28;20084;-68
2022/09/01 13:05:50;;;;;;;1.48;0.45;;;22.80;6.40;;;;;;5039190;28;20098;-68
2022/09/01 13:08:28;;;;;;;2.95;0.40;;;22.80;8.20;;;;;;5016467;28;20081;-68
2022/09/01 13:10:59;;;;;;;2.08;0.40;;;23.00;8.80;;;;;;5031395;28;20087;-68
2022/09/01 13:13:26;;;;;;;4.70;0.50;;;23.00;5.00;;;;;;5047104;28;20075;-68
2022/09/01 13:15:55;;;;;;;2.90;0.45;;;23.00;5.80;;;;;;5026220;28;20472;-68